CPA580 VHHH-ZPPP
Flight info
| Callsign | CPA580 |
|---|---|
| Flight time | N/A |
| Altitude | 40100 |
| Route | PECAN3X/07R PECAN V10 SIKOU/K0909S1220 R339 BSE A599 LXI LXI2B |
| Aircraft | A35K/H-SDE2E3GHIJ3J4J5LM1ORWXY/LB1D1 |
Departure
| Time | 2026-05-05 13:42 |
|---|---|
| Airport | Hong Kong International Airport (VHHH) |
Arrival
| Time | N/A |
|---|---|
| Airport | Kunming Changshui International Airport (ZPPP) |
| Time | Latitude | Longitude | Altitude | Speed | Heading |
|---|---|---|---|---|---|
| 2026-05-05 13:19 | 22.31506 | 113.92476 | 41 ft | 0 kts | 206° |
| 2026-05-05 13:30 | 22.31526 | 113.92487 | 39 ft | 4 kts | 206° |
| 2026-05-05 13:30 | 22.31551 | 113.92499 | 39 ft | 4 kts | 206° |
| 2026-05-05 13:30 | 22.31570 | 113.92509 | 39 ft | 4 kts | 210° |
| 2026-05-05 13:31 | 22.31587 | 113.92527 | 39 ft | 4 kts | 255° |
| 2026-05-05 13:31 | 22.31586 | 113.92553 | 35 ft | 3 kts | 296° |
| 2026-05-05 13:31 | 22.31575 | 113.92578 | 36 ft | 3 kts | 296° |
| 2026-05-05 13:31 | 22.31575 | 113.92579 | 36 ft | 0 kts | 296° |
| 2026-05-05 13:34 | 22.31576 | 113.92577 | 37 ft | 1 kts | 296° |
| 2026-05-05 13:34 | 22.31588 | 113.92549 | 36 ft | 8 kts | 296° |
| 2026-05-05 13:34 | 22.31617 | 113.92483 | 41 ft | 12 kts | 295° |
| 2026-05-05 13:34 | 22.31656 | 113.92392 | 41 ft | 14 kts | 288° |
| 2026-05-05 13:35 | 22.31635 | 113.92314 | 41 ft | 13 kts | 248° |
| 2026-05-05 13:35 | 22.31590 | 113.92190 | 41 ft | 21 kts | 248° |
| 2026-05-05 13:35 | 22.31538 | 113.92033 | 41 ft | 22 kts | 252° |
| 2026-05-05 13:35 | 22.31525 | 113.91990 | 41 ft | 10 kts | 251° |
| 2026-05-05 13:36 | 22.31459 | 113.91895 | 41 ft | 17 kts | 184° |
| 2026-05-05 13:36 | 22.31337 | 113.91928 | 41 ft | 20 kts | 159° |
| 2026-05-05 13:36 | 22.31199 | 113.91980 | 41 ft | 22 kts | 160° |
| 2026-05-05 13:36 | 22.31048 | 113.92038 | 41 ft | 24 kts | 162° |
| 2026-05-05 13:37 | 22.30877 | 113.92101 | 41 ft | 27 kts | 161° |
| 2026-05-05 13:37 | 22.30710 | 113.92163 | 41 ft | 19 kts | 166° |
| 2026-05-05 13:37 | 22.30637 | 113.92087 | 41 ft | 17 kts | 256° |
| 2026-05-05 13:37 | 22.30597 | 113.91954 | 41 ft | 23 kts | 250° |
| 2026-05-05 13:38 | 22.30534 | 113.91763 | 41 ft | 24 kts | 251° |
| 2026-05-05 13:38 | 22.30476 | 113.91579 | 41 ft | 27 kts | 250° |
| 2026-05-05 13:38 | 22.30410 | 113.91375 | 41 ft | 30 kts | 251° |
| 2026-05-05 13:38 | 22.30339 | 113.91154 | 41 ft | 33 kts | 251° |
| 2026-05-05 13:39 | 22.30315 | 113.91082 | 41 ft | 0 kts | 251° |
| 2026-05-05 13:39 | 22.30312 | 113.91071 | 41 ft | 8 kts | 251° |
| 2026-05-05 13:39 | 22.30270 | 113.90942 | 41 ft | 24 kts | 251° |
| 2026-05-05 13:39 | 22.30212 | 113.90762 | 41 ft | 27 kts | 251° |
| 2026-05-05 13:40 | 22.30147 | 113.90563 | 41 ft | 30 kts | 251° |
| 2026-05-05 13:40 | 22.30077 | 113.90344 | 41 ft | 32 kts | 251° |
| 2026-05-05 13:40 | 22.30000 | 113.90107 | 41 ft | 35 kts | 251° |
| 2026-05-05 13:40 | 22.29918 | 113.89853 | 41 ft | 37 kts | 250° |
| 2026-05-05 13:41 | 22.29822 | 113.89739 | 41 ft | 17 kts | 171° |
| 2026-05-05 13:41 | 22.29692 | 113.89788 | 41 ft | 24 kts | 153° |
| 2026-05-05 13:41 | 22.29674 | 113.89962 | 41 ft | 30 kts | 71° |
| 2026-05-05 13:41 | 22.29807 | 113.90380 | 42 ft | 99 kts | 71° |
| 2026-05-05 13:42 | 22.30116 | 113.91346 | 42 ft | 171 kts | 72° |
| 2026-05-05 13:42 | 22.30529 | 113.92646 | 759 ft | 176 kts | 72° |
| 2026-05-05 13:42 | 22.30942 | 113.93965 | 1549 ft | 197 kts | 72° |
| 2026-05-05 13:42 | 22.31409 | 113.95394 | 2466 ft | 204 kts | 73° |
| 2026-05-05 13:43 | 22.31859 | 113.96878 | 3297 ft | 219 kts | 78° |
| 2026-05-05 13:43 | 22.31928 | 113.98617 | 3745 ft | 248 kts | 103° |
| 2026-05-05 13:43 | 22.31060 | 114.00240 | 4604 ft | 256 kts | 140° |
| 2026-05-05 13:43 | 22.29441 | 114.01061 | 5514 ft | 263 kts | 173° |
| 2026-05-05 13:44 | 22.27602 | 114.01119 | 6520 ft | 266 kts | 183° |
| 2026-05-05 13:44 | 22.25729 | 114.01065 | 7454 ft | 271 kts | 182° |
| 2026-05-05 13:44 | 22.23825 | 114.01047 | 8370 ft | 276 kts | 182° |
| 2026-05-05 13:44 | 22.21882 | 114.01063 | 9254 ft | 281 kts | 181° |
| 2026-05-05 13:45 | 22.19911 | 114.01101 | 10134 ft | 285 kts | 181° |
| 2026-05-05 13:45 | 22.17874 | 114.01151 | 10595 ft | 303 kts | 181° |
| 2026-05-05 13:45 | 22.12064 | 114.01319 | 11420 ft | 354 kts | 181° |
| 2026-05-05 13:45 | 22.01699 | 114.01652 | 13912 ft | 377 kts | 182° |
| 2026-05-05 13:46 | 21.91022 | 114.01991 | 16994 ft | 400 kts | 182° |
| 2026-05-05 13:46 | 21.79652 | 114.02353 | 20036 ft | 418 kts | 183° |
| 2026-05-05 13:46 | 21.67784 | 114.02729 | 22811 ft | 435 kts | 183° |
| 2026-05-05 13:46 | 21.55468 | 114.03119 | 24990 ft | 454 kts | 183° |
| 2026-05-05 13:47 | 21.42809 | 114.02149 | 27190 ft | 456 kts | 206° |
| 2026-05-05 13:47 | 21.31925 | 113.95251 | 29403 ft | 460 kts | 220° |
| 2026-05-05 13:47 | 21.21142 | 113.87396 | 31162 ft | 477 kts | 219° |
| 2026-05-05 13:47 | 21.10470 | 113.78817 | 32678 ft | 478 kts | 233° |
| 2026-05-05 13:48 | 21.04610 | 113.66461 | 34486 ft | 464 kts | 254° |
| 2026-05-05 13:48 | 21.00456 | 113.53364 | 36010 ft | 464 kts | 254° |
| 2026-05-05 13:48 | 20.96224 | 113.40294 | 37403 ft | 466 kts | 254° |
| 2026-05-05 13:48 | 20.91963 | 113.27240 | 38754 ft | 465 kts | 254° |
| 2026-05-05 13:49 | 20.87694 | 113.14192 | 39807 ft | 464 kts | 254° |
| 2026-05-05 13:49 | 20.83375 | 113.01011 | 40079 ft | 477 kts | 254° |
| 2026-05-05 13:49 | 20.74436 | 112.73893 | 40065 ft | 486 kts | 253° |
| 2026-05-05 13:50 | 20.65400 | 112.46632 | 40062 ft | 487 kts | 253° |
| 2026-05-05 13:50 | 20.56880 | 112.19298 | 40072 ft | 481 kts | 266° |
| 2026-05-05 13:51 | 20.59252 | 112.05606 | 40072 ft | 473 kts | 295° |
| 2026-05-05 13:51 | 20.65004 | 111.92958 | 40074 ft | 474 kts | 296° |
| 2026-05-05 13:51 | 20.74537 | 111.71872 | 40067 ft | 475 kts | 296° |
| 2026-05-05 13:52 | 20.80465 | 111.58657 | 40073 ft | 475 kts | 296° |
| 2026-05-05 13:52 | 20.82836 | 111.53364 | 40068 ft | 475 kts | 296° |
| 2026-05-05 13:53 | 20.85129 | 111.46732 | 40072 ft | 476 kts | 287° |
| 2026-05-05 13:53 | 20.86898 | 111.39913 | 40070 ft | 476 kts | 286° |
| 2026-05-05 13:54 | 20.88587 | 111.33068 | 40067 ft | 476 kts | 286° |
| 2026-05-05 13:54 | 20.90275 | 111.26209 | 40069 ft | 477 kts | 286° |
| 2026-05-05 13:55 | 20.91969 | 111.19360 | 40065 ft | 476 kts | 286° |
| 2026-05-05 13:56 | 20.95353 | 111.05699 | 40062 ft | 477 kts | 286° |
| 2026-05-05 13:56 | 20.97078 | 110.98839 | 40065 ft | 477 kts | 286° |
| 2026-05-05 13:57 | 20.98802 | 110.92035 | 40061 ft | 477 kts | 286° |
| 2026-05-05 13:57 | 21.00534 | 110.85179 | 40062 ft | 477 kts | 286° |